createdAt,value
2022-12-01T00:01:12.679Z,1.64
2022-12-01T00:03:44.351Z,1.68
2022-12-01T00:06:18.352Z,1.72
2022-12-01T00:09:09.500Z,1.75
2022-12-01T00:11:41.155Z,1.77
2022-12-01T00:14:12.836Z,1.80
2022-12-01T00:16:44.965Z,1.81
2022-12-01T00:19:17.800Z,1.86
2022-12-01T00:21:49.490Z,1.90
2022-12-01T00:24:23.476Z,1.92
2022-12-01T00:26:54.992Z,1.96
2022-12-01T00:29:27.899Z,2.01
2022-12-01T00:31:59.455Z,2.04
2022-12-01T00:34:31.038Z,2.07
2022-12-01T00:37:03.017Z,2.09
2022-12-01T00:39:34.547Z,2.11
2022-12-01T00:42:11.605Z,2.13
2022-12-01T00:44:44.783Z,2.16
2022-12-01T00:47:16.337Z,2.15
2022-12-01T00:49:48.419Z,2.15
2022-12-01T00:52:21.160Z,2.18
2022-12-01T00:54:53.936Z,2.19
2022-12-01T00:57:25.577Z,2.19
2022-12-01T00:59:57.024Z,2.17
2022-12-01T01:02:28.560Z,2.16
2022-12-01T01:05:00.229Z,2.15
2022-12-01T01:07:33.379Z,2.12
2022-12-01T01:10:05.311Z,2.14
2022-12-01T01:12:38.253Z,2.15
2022-12-01T01:15:11.463Z,2.15
2022-12-01T01:17:42.964Z,2.12
2022-12-01T01:20:16.144Z,2.12
2022-12-01T01:22:47.696Z,2.11
2022-12-01T01:25:19.403Z,2.10
2022-12-01T01:27:51.216Z,2.12
2022-12-01T01:30:22.926Z,2.14
2022-12-01T01:32:55.256Z,2.17
2022-12-01T01:35:27.087Z,2.20
2022-12-01T01:37:58.540Z,2.22
2022-12-01T01:40:30.408Z,2.23
2022-12-01T01:43:02.209Z,2.23
2022-12-01T01:45:35.477Z,2.25
2022-12-01T01:48:08.249Z,2.26
2022-12-01T01:50:40.740Z,2.27
2022-12-01T01:53:16.170Z,2.26
2022-12-01T01:55:47.905Z,2.25
2022-12-01T01:58:20.989Z,2.26
2022-12-01T02:00:52.570Z,2.26
2022-12-01T02:03:25.747Z,2.26
2022-12-01T02:06:04.532Z,2.26
2022-12-01T02:08:38.206Z,2.25
2022-12-01T02:11:30.247Z,2.25
2022-12-01T02:14:14.241Z,2.23
2022-12-01T02:16:55.864Z,2.22
2022-12-01T02:19:53.383Z,2.20
2022-12-01T02:22:43.463Z,2.21
2022-12-01T02:25:35.999Z,2.20
2022-12-01T02:28:26.561Z,2.19
2022-12-01T02:31:02.405Z,2.18
2022-12-01T02:33:41.430Z,2.18
2022-12-01T02:36:20.999Z,2.16
2022-12-01T02:38:57.092Z,2.14
2022-12-01T02:41:33.023Z,2.13
2022-12-01T02:44:10.364Z,2.13
2022-12-01T02:46:47.107Z,2.12
2022-12-01T02:49:21.316Z,2.12
2022-12-01T02:51:55.239Z,2.13
2022-12-01T02:54:30.899Z,2.12
2022-12-01T02:57:02.589Z,2.12
2022-12-01T02:59:34.145Z,2.13
2022-12-01T03:02:15.540Z,2.13
2022-12-01T03:04:57.468Z,2.14
2022-12-01T03:07:50.391Z,2.14
2022-12-01T03:10:27.813Z,2.11
2022-12-01T03:13:17.526Z,2.06
2022-12-01T03:15:57.536Z,2.05
2022-12-01T03:18:38.080Z,2.07
2022-12-01T03:21:14.730Z,2.10
2022-12-01T03:23:51.006Z,2.12
2022-12-01T03:26:33.763Z,2.13
2022-12-01T03:29:11.283Z,2.13
2022-12-01T03:31:49.074Z,2.14
2022-12-01T03:34:26.475Z,2.15
2022-12-01T03:37:02.616Z,2.15
2022-12-01T03:39:37.011Z,2.15
2022-12-01T03:42:16.219Z,2.15
2022-12-01T03:44:51.620Z,2.14
2022-12-01T03:47:26.048Z,2.15
2022-12-01T03:50:00.279Z,2.16
2022-12-01T03:52:45.592Z,2.19
2022-12-01T03:55:24.155Z,2.21
2022-12-01T03:58:02.627Z,2.23
2022-12-01T04:00:34.920Z,2.23
2022-12-01T04:03:07.235Z,2.24
2022-12-01T04:05:38.801Z,2.22
2022-12-01T04:08:10.397Z,2.18
2022-12-01T04:10:42.046Z,2.14
2022-12-01T04:13:22.537Z,2.12
2022-12-01T04:15:55.801Z,2.11
2022-12-01T04:18:27.436Z,2.11
2022-12-01T04:20:58.945Z,2.15
2022-12-01T04:23:47.449Z,2.17
2022-12-01T04:26:18.982Z,2.18
2022-12-01T04:28:50.563Z,2.19
2022-12-01T04:31:22.192Z,2.19
2022-12-01T04:33:54.973Z,2.22
2022-12-01T04:36:27.030Z,2.24
2022-12-01T04:38:58.643Z,2.25
2022-12-01T04:41:31.218Z,2.25
2022-12-01T04:44:03.020Z,2.25
2022-12-01T04:46:34.540Z,2.24
2022-12-01T04:49:06.607Z,2.23
2022-12-01T04:51:38.491Z,2.23
2022-12-01T04:54:10.001Z,2.23
2022-12-01T04:56:41.719Z,2.22
2022-12-01T04:59:13.366Z,2.23
2022-12-01T05:01:46.717Z,2.23
2022-12-01T05:04:18.365Z,2.19
2022-12-01T05:06:49.991Z,2.14
2022-12-01T05:09:22.043Z,2.10
2022-12-01T05:11:53.521Z,2.09
2022-12-01T05:14:25.049Z,2.09
2022-12-01T05:16:58.165Z,2.11
2022-12-01T05:19:47.700Z,2.10
2022-12-01T05:22:31.486Z,2.10
2022-12-01T05:25:11.477Z,2.10
2022-12-01T05:27:43.183Z,2.07
2022-12-01T05:30:15.817Z,2.09
2022-12-01T05:32:47.373Z,2.13
2022-12-01T05:35:19.263Z,2.14
2022-12-01T05:37:50.873Z,2.17
2022-12-01T05:40:22.521Z,2.17
2022-12-01T05:42:54.353Z,2.20
2022-12-01T05:45:26.323Z,2.19
2022-12-01T05:47:59.033Z,2.21
2022-12-01T05:50:31.418Z,2.24
2022-12-01T05:53:02.985Z,2.27
2022-12-01T05:55:35.442Z,2.25
2022-12-01T05:58:07.287Z,2.26
2022-12-01T06:00:45.777Z,2.28
2022-12-01T06:03:17.889Z,2.29
2022-12-01T06:05:49.376Z,2.28
2022-12-01T06:08:21.190Z,2.29
2022-12-01T06:10:52.720Z,2.27
2022-12-01T06:13:24.307Z,2.29
2022-12-01T06:16:04.512Z,2.30
2022-12-01T06:18:38.477Z,2.27
2022-12-01T06:21:10.436Z,2.25
2022-12-01T06:23:42.081Z,2.22
2022-12-01T06:26:13.640Z,2.21
2022-12-01T06:28:45.187Z,2.21
2022-12-01T06:31:17.241Z,2.17
2022-12-01T06:33:48.902Z,2.15
2022-12-01T06:36:20.800Z,2.16
2022-12-01T06:38:52.365Z,2.18
2022-12-01T06:41:23.997Z,2.19
2022-12-01T06:43:55.712Z,2.16
2022-12-01T06:46:27.264Z,2.18
2022-12-01T06:48:59.259Z,2.19
2022-12-01T06:51:33.772Z,2.21
2022-12-01T06:54:05.906Z,2.21
2022-12-01T06:56:37.542Z,2.21
2022-12-01T06:59:09.193Z,2.15
2022-12-01T07:01:41.317Z,2.11
2022-12-01T07:04:12.949Z,2.10
2022-12-01T07:06:44.448Z,2.11
2022-12-01T07:09:16.037Z,2.14
2022-12-01T07:11:47.633Z,2.15
2022-12-01T07:14:24.341Z,2.15
2022-12-01T07:16:56.315Z,2.20
2022-12-01T07:19:28.056Z,2.23
2022-12-01T07:21:59.524Z,2.26
2022-12-01T07:24:31.718Z,2.22
2022-12-01T07:27:03.325Z,2.17
2022-12-01T07:29:34.847Z,2.13
2022-12-01T07:32:06.983Z,2.14
2022-12-01T07:34:38.608Z,2.15
2022-12-01T07:37:10.504Z,2.16
2022-12-01T07:39:42.235Z,2.20
2022-12-01T07:42:13.809Z,2.21
2022-12-01T07:44:45.309Z,2.18
2022-12-01T07:47:17.090Z,2.16
2022-12-01T07:49:48.781Z,2.15
2022-12-01T07:52:20.599Z,2.13
2022-12-01T07:54:52.750Z,2.09
2022-12-01T07:57:24.610Z,2.08
2022-12-01T07:59:56.184Z,2.09
2022-12-01T08:02:27.757Z,2.11
2022-12-01T08:04:59.504Z,2.13
2022-12-01T08:07:31.035Z,2.15
2022-12-01T08:10:02.622Z,2.16
2022-12-01T08:12:34.193Z,2.20
2022-12-01T08:15:06.899Z,2.21
2022-12-01T08:17:39.400Z,2.22
2022-12-01T08:20:12.519Z,2.25
2022-12-01T08:22:44.074Z,2.27
2022-12-01T08:25:15.726Z,2.21
2022-12-01T08:27:47.246Z,2.24
2022-12-01T08:30:19.230Z,2.22
2022-12-01T08:32:53.954Z,2.15
2022-12-01T08:35:25.885Z,2.13
2022-12-01T08:37:57.383Z,2.15
2022-12-01T08:40:29.024Z,2.17
2022-12-01T08:43:00.628Z,2.18
2022-12-01T08:45:32.163Z,2.20
2022-12-01T08:48:03.700Z,2.22
2022-12-01T08:50:35.230Z,2.22
2022-12-01T08:53:06.794Z,2.21
2022-12-01T08:55:38.863Z,2.18
2022-12-01T08:58:10.545Z,2.15
2022-12-01T09:00:42.063Z,2.15
2022-12-01T09:03:13.576Z,2.15
2022-12-01T09:05:45.113Z,2.17
2022-12-01T09:08:35.850Z,2.16
2022-12-01T09:11:09.683Z,2.13
2022-12-01T09:13:42.433Z,2.13
2022-12-01T09:16:16.187Z,2.12
2022-12-01T09:18:49.213Z,2.14
2022-12-01T09:21:23.519Z,2.17
2022-12-01T09:23:56.442Z,2.20
2022-12-01T09:26:29.377Z,2.24
2022-12-01T09:29:02.576Z,2.28
2022-12-01T09:31:34.307Z,2.31
2022-12-01T09:34:09.063Z,2.31
2022-12-01T09:36:40.833Z,2.30
2022-12-01T09:39:15.699Z,2.28
2022-12-01T09:41:50.965Z,2.28
2022-12-01T09:44:32.563Z,2.26
2022-12-01T09:47:13.378Z,2.25
2022-12-01T09:49:54.379Z,2.25
2022-12-01T09:52:27.952Z,2.25
2022-12-01T09:54:59.676Z,2.27
2022-12-01T09:57:35.277Z,2.27
2022-12-01T10:00:13.721Z,2.23
2022-12-01T10:02:50.595Z,2.28
2022-12-01T10:05:25.551Z,2.24
2022-12-01T10:08:01.884Z,2.24
2022-12-01T10:10:44.014Z,2.21
2022-12-01T10:13:21.386Z,2.28
2022-12-01T10:15:59.942Z,2.31
2022-12-01T10:18:41.251Z,2.33
2022-12-01T10:21:19.627Z,2.34
2022-12-01T10:24:15.246Z,2.36
2022-12-01T10:26:57.094Z,2.37
2022-12-01T10:29:43.722Z,2.42
2022-12-01T10:32:21.659Z,2.44
2022-12-01T10:34:53.291Z,2.43
2022-12-01T10:37:28.633Z,2.42
2022-12-01T10:40:01.215Z,2.41
2022-12-01T10:42:40.157Z,2.39
2022-12-01T10:45:19.663Z,2.38
2022-12-01T10:48:15.333Z,2.37
2022-12-01T10:50:50.075Z,2.30
2022-12-01T10:53:38.139Z,2.30
2022-12-01T10:56:17.045Z,2.26
2022-12-01T10:58:51.236Z,2.25
2022-12-01T11:01:26.076Z,2.22
2022-12-01T11:04:01.706Z,2.22
2022-12-01T11:06:34.055Z,2.23
2022-12-01T11:09:09.360Z,2.24
2022-12-01T11:11:42.164Z,2.25
2022-12-01T11:14:22.396Z,2.28
2022-12-01T11:16:55.212Z,2.30
2022-12-01T11:19:33.562Z,2.34
2022-12-01T11:22:21.973Z,2.37
2022-12-01T11:25:02.739Z,2.40
2022-12-01T11:27:38.255Z,2.45
2022-12-01T11:30:24.371Z,2.42
2022-12-01T11:32:58.952Z,2.39
2022-12-01T11:35:33.089Z,2.35
2022-12-01T11:38:29.662Z,2.31
2022-12-01T11:41:00.393Z,2.32
2022-12-01T11:43:34.233Z,2.33
2022-12-01T11:46:10.906Z,2.34
2022-12-01T11:48:42.602Z,2.33
2022-12-01T11:51:31.910Z,2.30
2022-12-01T11:54:16.969Z,2.31
2022-12-01T11:57:10.403Z,2.30
2022-12-01T11:59:41.619Z,2.33
2022-12-01T12:02:29.820Z,2.34
2022-12-01T12:05:18.553Z,2.33
2022-12-01T12:07:59.222Z,2.31
2022-12-01T12:10:45.816Z,2.32
2022-12-01T12:13:38.061Z,2.33
2022-12-01T12:16:17.279Z,2.32
2022-12-01T12:19:06.499Z,2.27
2022-12-01T12:21:48.410Z,2.30
2022-12-01T12:24:34.611Z,2.32
2022-12-01T12:27:15.354Z,2.31
2022-12-01T12:30:01.602Z,2.29
2022-12-01T12:32:47.559Z,2.27
2022-12-01T12:35:33.651Z,2.25
2022-12-01T12:38:13.060Z,2.27
2022-12-01T12:40:54.871Z,2.27
2022-12-01T12:43:36.183Z,2.25
2022-12-01T12:46:12.304Z,2.28
2022-12-01T12:51:57.849Z,2.35
2022-12-01T12:54:34.142Z,2.36
2022-12-01T12:57:12.492Z,2.40
2022-12-01T12:59:51.627Z,2.43
2022-12-01T13:02:28.236Z,2.44
2022-12-01T13:05:06.117Z,2.47
2022-12-01T13:07:43.539Z,2.50
2022-12-01T13:10:24.897Z,2.49
2022-12-01T13:13:02.576Z,2.46
2022-12-01T13:15:37.559Z,2.43
2022-12-01T13:18:28.421Z,2.44
2022-12-01T13:21:03.193Z,2.48
2022-12-01T13:23:37.085Z,2.49
2022-12-01T13:26:11.660Z,2.46
2022-12-01T13:28:47.659Z,2.45
2022-12-01T13:31:20.762Z,2.41
2022-12-01T13:34:00.933Z,2.42
2022-12-01T13:36:49.216Z,2.43
2022-12-01T13:39:23.752Z,2.42
2022-12-01T13:42:04.129Z,2.39
2022-12-01T13:44:41.593Z,2.36
2022-12-01T13:47:40.033Z,2.34
2022-12-01T13:50:46.574Z,2.33
2022-12-01T13:53:28.521Z,2.31
2022-12-01T13:56:05.479Z,2.30
2022-12-01T13:58:48.964Z,2.31
2022-12-01T14:01:48.192Z,2.34
2022-12-01T14:04:31.550Z,2.33
2022-12-01T14:07:39.855Z,2.34
2022-12-01T14:10:24.032Z,2.34
2022-12-01T14:12:57.689Z,2.35
2022-12-01T14:15:42.826Z,2.35
2022-12-01T14:18:41.454Z,2.33
2022-12-01T14:21:14.754Z,2.35
2022-12-01T14:26:49.137Z,2.32
2022-12-01T14:29:31.846Z,2.26
2022-12-01T14:32:26.125Z,2.24
2022-12-01T14:35:02.574Z,2.26
2022-12-01T14:37:50.133Z,2.28
2022-12-01T14:40:26.871Z,2.30
2022-12-01T14:43:18.514Z,2.31
2022-12-01T14:46:12.789Z,2.33
2022-12-01T14:48:46.801Z,2.31
2022-12-01T14:51:28.284Z,2.28
2022-12-01T14:54:02.381Z,2.28
2022-12-01T14:56:35.278Z,2.29
2022-12-01T14:59:21.247Z,2.30
2022-12-01T15:01:56.108Z,2.26
2022-12-01T15:04:27.861Z,2.23
2022-12-01T15:06:59.678Z,2.25
2022-12-01T15:09:34.469Z,2.25
2022-12-01T15:12:24.513Z,2.25
2022-12-01T15:14:56.162Z,2.27
2022-12-01T15:17:34.381Z,2.24
2022-12-01T15:20:26.960Z,2.21
2022-12-01T15:22:59.620Z,2.17
2022-12-01T15:25:36.970Z,2.16
2022-12-01T15:28:16.068Z,2.15
2022-12-01T15:30:49.664Z,2.14
2022-12-01T15:33:26.932Z,2.13
2022-12-01T15:36:01.170Z,2.11
2022-12-01T15:38:34.557Z,2.10
2022-12-01T15:44:03.573Z,2.10
2022-12-01T15:46:36.221Z,2.07
2022-12-01T15:49:17.791Z,2.06
2022-12-01T15:51:51.549Z,2.07
2022-12-01T15:54:27.470Z,2.08
2022-12-01T15:57:01.115Z,2.09
2022-12-01T15:59:34.480Z,2.09
2022-12-01T16:02:22.572Z,2.07
2022-12-01T16:05:03.473Z,2.06
2022-12-01T16:08:12.242Z,2.02
2022-12-01T16:10:48.120Z,2.02
2022-12-01T16:13:45.177Z,2.01
2022-12-01T16:16:39.769Z,1.99
2022-12-01T16:19:27.981Z,1.93
2022-12-01T16:22:14.550Z,1.92
2022-12-01T16:24:51.022Z,1.92
2022-12-01T16:27:25.776Z,1.92
2022-12-01T16:30:00.216Z,1.89
2022-12-01T16:32:38.231Z,1.88
2022-12-01T16:35:26.504Z,1.89
2022-12-01T16:37:58.683Z,1.87
2022-12-01T16:40:30.529Z,1.88
2022-12-01T16:43:02.230Z,1.85
2022-12-01T16:45:36.008Z,1.84
2022-12-01T16:48:09.515Z,1.83
2022-12-01T16:50:40.476Z,1.83
2022-12-01T16:53:12.956Z,1.82
2022-12-01T16:55:48.500Z,1.83
2022-12-01T16:58:20.308Z,1.83
2022-12-01T17:00:53.408Z,1.83
2022-12-01T17:03:28.272Z,1.84
2022-12-01T17:06:02.911Z,1.84
2022-12-01T17:08:34.672Z,1.85
2022-12-01T17:11:08.047Z,1.86
2022-12-01T17:13:39.560Z,1.87
2022-12-01T17:16:18.446Z,1.88
2022-12-01T17:18:50.507Z,1.89
2022-12-01T17:21:22.044Z,1.89
2022-12-01T17:23:53.666Z,1.90
2022-12-01T17:26:27.315Z,1.90
2022-12-01T17:28:58.936Z,1.90
2022-12-01T17:31:30.768Z,1.87
2022-12-01T17:34:02.521Z,1.89
2022-12-01T17:36:34.076Z,1.92
2022-12-01T17:39:06.252Z,1.92
2022-12-01T17:41:37.780Z,1.89
2022-12-01T17:44:09.471Z,1.85
2022-12-01T17:46:41.921Z,1.82
2022-12-01T17:49:13.576Z,1.82
2022-12-01T17:51:45.239Z,1.81
2022-12-01T17:54:17.185Z,1.81
2022-12-01T17:56:49.021Z,1.81
2022-12-01T17:59:21.598Z,1.81
2022-12-01T18:01:53.301Z,1.81
2022-12-01T18:04:24.961Z,1.83
2022-12-01T18:06:56.452Z,1.85
2022-12-01T18:09:28.105Z,1.86
2022-12-01T18:11:59.595Z,1.86
2022-12-01T18:14:32.701Z,1.86
2022-12-01T18:17:04.424Z,1.85
2022-12-01T18:19:36.358Z,1.87
2022-12-01T18:22:07.841Z,1.91
2022-12-01T18:24:39.522Z,1.93
2022-12-01T18:27:11.049Z,1.92
2022-12-01T18:29:42.782Z,1.90
2022-12-01T18:32:14.299Z,1.86
2022-12-01T18:34:46.151Z,1.84
2022-12-01T18:37:17.763Z,1.87
2022-12-01T18:39:49.352Z,1.88
2022-12-01T18:42:20.842Z,1.88
2022-12-01T18:44:52.746Z,1.90
2022-12-01T18:47:24.512Z,1.91
2022-12-01T18:49:56.021Z,1.79
2022-12-01T18:52:27.662Z,1.74
2022-12-01T18:54:59.195Z,1.69
2022-12-01T18:57:31.583Z,1.62
2022-12-01T19:00:04.515Z,1.55
2022-12-01T19:02:36.270Z,1.53
2022-12-01T19:05:08.822Z,1.54
2022-12-01T19:07:40.383Z,1.55
2022-12-01T19:10:13.392Z,1.57
2022-12-01T19:12:44.932Z,1.57
2022-12-01T19:15:16.454Z,1.55
2022-12-01T19:17:47.952Z,1.53
2022-12-01T19:20:19.709Z,1.52
2022-12-01T19:22:51.284Z,1.47
2022-12-01T19:25:22.860Z,1.45
2022-12-01T19:27:54.466Z,1.41
2022-12-01T19:30:25.960Z,1.34
2022-12-01T19:32:57.486Z,1.27
2022-12-01T19:35:29.070Z,1.23
2022-12-01T19:38:00.552Z,1.22
2022-12-01T19:40:32.363Z,1.24
2022-12-01T19:43:03.945Z,1.22
2022-12-01T19:45:37.469Z,1.24
2022-12-01T19:48:07.995Z,1.24
2022-12-01T19:50:39.811Z,1.27
2022-12-01T19:53:11.481Z,1.28
2022-12-01T19:55:43.045Z,1.28
2022-12-01T19:58:14.535Z,1.27
2022-12-01T20:00:46.824Z,1.28
2022-12-01T20:03:18.419Z,1.30
2022-12-01T20:05:49.943Z,1.30
2022-12-01T20:08:21.570Z,1.30
2022-12-01T20:10:53.156Z,1.29
2022-12-01T20:13:24.648Z,1.30
2022-12-01T20:16:01.489Z,1.31
2022-12-01T20:18:33.672Z,1.29
2022-12-01T20:21:12.567Z,1.28
2022-12-01T20:23:44.560Z,1.32
2022-12-01T20:26:17.620Z,1.34
2022-12-01T20:28:51.138Z,1.31
2022-12-01T20:31:25.521Z,1.29
2022-12-01T20:33:59.563Z,1.27
2022-12-01T20:36:31.684Z,1.28
2022-12-01T20:39:03.786Z,1.28
2022-12-01T20:41:35.652Z,1.29
2022-12-01T20:44:08.141Z,1.31
2022-12-01T20:46:40.993Z,1.31
2022-12-01T20:49:13.544Z,1.29
2022-12-01T20:51:45.844Z,1.25
2022-12-01T20:54:27.858Z,1.19
2022-12-01T20:57:01.099Z,1.17
2022-12-01T20:59:32.858Z,1.19
2022-12-01T21:02:04.527Z,1.20
2022-12-01T21:04:36.151Z,1.16
2022-12-01T21:07:07.648Z,1.15
2022-12-01T21:09:39.433Z,1.17
2022-12-01T21:12:33.453Z,1.13
2022-12-01T21:15:16.061Z,1.13
2022-12-01T21:17:51.981Z,1.15
2022-12-01T21:20:29.464Z,1.17
2022-12-01T21:23:07.394Z,1.19
2022-12-01T21:25:40.491Z,1.22
2022-12-01T21:28:19.799Z,1.24
2022-12-01T21:30:53.556Z,1.25
2022-12-01T21:33:34.618Z,1.21
2022-12-01T21:36:14.820Z,1.14
2022-12-01T21:38:48.172Z,1.13
2022-12-01T21:41:25.215Z,1.11
2022-12-01T21:44:02.191Z,1.07
2022-12-01T21:46:33.813Z,0.98
2022-12-01T21:49:10.127Z,0.96
2022-12-01T21:51:41.978Z,1.00
2022-12-01T21:54:16.985Z,1.06
2022-12-01T21:56:49.325Z,1.09
2022-12-01T21:59:23.262Z,1.13
2022-12-01T22:01:57.127Z,1.15
2022-12-01T22:04:32.973Z,1.16
2022-12-01T22:07:05.212Z,1.16
2022-12-01T22:09:37.746Z,1.17
2022-12-01T22:12:21.425Z,1.19
2022-12-01T22:14:54.394Z,1.21
2022-12-01T22:17:25.956Z,1.24
2022-12-01T22:19:58.799Z,1.28
2022-12-01T22:22:32.462Z,1.31
2022-12-01T22:25:23.545Z,1.31
2022-12-01T22:27:56.071Z,1.31
2022-12-01T22:30:27.981Z,1.33
2022-12-01T22:33:04.180Z,1.29
2022-12-01T22:35:39.775Z,1.28
2022-12-01T22:38:32.945Z,1.29
2022-12-01T22:41:06.797Z,1.29
2022-12-01T22:43:45.393Z,1.29
2022-12-01T22:46:32.633Z,1.30
2022-12-01T22:49:22.200Z,1.28
2022-12-01T22:51:56.201Z,1.27
2022-12-01T22:54:35.238Z,1.23
2022-12-01T22:57:19.535Z,1.24
2022-12-01T22:59:51.303Z,1.24
2022-12-01T23:02:28.148Z,1.22
2022-12-01T23:05:02.652Z,1.16
2022-12-01T23:07:36.634Z,1.13
2022-12-01T23:10:14.443Z,1.11
2022-12-01T23:12:47.458Z,1.04
2022-12-01T23:15:24.609Z,1.03
2022-12-01T23:17:56.942Z,1.03
2022-12-01T23:20:34.301Z,0.97
2022-12-01T23:23:09.604Z,0.97
2022-12-01T23:25:42.692Z,0.96
2022-12-01T23:28:15.461Z,0.94
2022-12-01T23:30:48.786Z,0.90
2022-12-01T23:33:23.101Z,0.84
2022-12-01T23:35:58.951Z,0.84
2022-12-01T23:38:33.122Z,0.84
2022-12-01T23:41:08.425Z,0.84
2022-12-01T23:43:43.873Z,0.88
2022-12-01T23:46:19.180Z,0.92
2022-12-01T23:48:53.661Z,0.93
2022-12-01T23:51:27.770Z,0.94
2022-12-01T23:54:02.135Z,0.94
2022-12-01T23:56:34.227Z,0.93
2022-12-01T23:59:07.205Z,0.90
